San Jose, California
Current Conditions -  °F | °C
As of 6:53 PM on Monday 20 Oct 2014 (Local Time) from KSJC Reporting Station
Few Clouds Few Clouds  
Wind Chill: 63°   Ceiling: Unl
Heat Index: 63°   Visibility: 10mi
Dew Point: 51°   Wind: 8mph
Humidity: 65%   Direction: 270°W
Pressure: 30"   Gusts: NA
Location:  37.35°N, 121.9°W
Report Text: KSJC 210153Z 27007KT 10SM FEW012 17/11 A3000 RMK AO2 SLP156 T01720106
Loading
Personal Weather Stations






























Interactive Weather Map
Tropical Storm Tracking
New forecast layout! Learn more

10-Day Weather Forecast

Advertisements
Track Severe Weather on mobile